Time;durP1;ratioP1;P1;durP2;ratioP2;P2;SDS_P1;SDS_P2;PMS_P1;PMS_P2;Temp;Humidity;BMP_temperature;BMP_pressure;BME280_temperature;BME280_humidity;BME280_pressure;Samples;Min_cycle;Max_cycle;Signal;HPM_P1;HPM_P2
2023/09/04 00:00:53;;;;;;;6.07;5.97;;;14.80;99.90;;;;;;4964331;28;20507;-66
2023/09/04 00:03:20;;;;;;;5.83;5.73;;;14.90;99.90;;;;;;4964948;28;20559;-66
2023/09/04 00:05:48;;;;;;;6.20;6.10;;;14.90;99.90;;;;;;4960544;28;20887;-66
2023/09/04 00:08:16;;;;;;;5.20;5.13;;;14.80;99.90;;;;;;4967253;28;20898;-66
2023/09/04 00:10:44;;;;;;;5.67;5.57;;;14.80;99.90;;;;;;4958984;28;21045;-66
2023/09/04 00:13:11;;;;;;;6.07;5.97;;;14.80;99.90;;;;;;4965975;28;20456;-66
2023/09/04 00:15:38;;;;;;;5.43;5.33;;;14.70;99.90;;;;;;4965400;28;20477;-67
2023/09/04 00:18:06;;;;;;;4.67;4.67;;;14.60;99.90;;;;;;4966310;28;20500;-67
2023/09/04 00:20:33;;;;;;;4.93;4.93;;;14.40;99.90;;;;;;4964236;28;20853;-66
2023/09/04 00:23:00;;;;;;;5.03;5.03;;;14.40;99.90;;;;;;4965181;28;21007;-66
2023/09/04 00:25:30;;;;;;;4.30;4.30;;;14.40;99.90;;;;;;4957590;28;20468;-67
2023/09/04 00:27:57;;;;;;;4.10;4.10;;;14.30;99.90;;;;;;4966216;28;20539;-67
2023/09/04 00:30:25;;;;;;;4.90;4.90;;;14.30;99.90;;;;;;4964076;28;20955;-66
2023/09/04 00:32:52;;;;;;;4.60;4.60;;;14.20;99.90;;;;;;4971886;28;20471;-68
2023/09/04 00:35:19;;;;;;;5.37;5.27;;;14.10;99.90;;;;;;4970231;28;20871;-66
2023/09/04 00:37:46;;;;;;;5.50;5.40;;;14.00;99.90;;;;;;4964318;28;20566;-65
2023/09/04 00:40:13;;;;;;;5.10;5.10;;;13.90;99.90;;;;;;4977798;28;20622;-66
2023/09/04 00:42:42;;;;;;;4.77;4.77;;;14.00;99.90;;;;;;4969612;28;20455;-66
2023/09/04 00:45:11;;;;;;;5.70;5.60;;;13.90;99.90;;;;;;4966513;28;20481;-66
2023/09/04 00:47:40;;;;;;;5.20;5.10;;;13.90;99.90;;;;;;4964577;28;20464;-66
2023/09/04 00:50:11;;;;;;;5.20;5.10;;;13.80;99.90;;;;;;4958819;28;20471;-64
2023/09/04 00:52:39;;;;;;;5.13;5.10;;;13.80;99.90;;;;;;4969505;28;21349;-66
2023/09/04 00:55:06;;;;;;;5.57;5.47;;;13.70;99.90;;;;;;4968413;28;20483;-66
2023/09/04 00:57:35;;;;;;;4.90;4.90;;;13.60;99.90;;;;;;4965317;28;20471;-64
2023/09/04 01:00:07;;;;;;;5.00;5.00;;;13.60;99.90;;;;;;4969129;28;20949;-66
2023/09/04 01:02:34;;;;;;;4.60;4.60;;;13.50;99.90;;;;;;4968065;28;20483;-68
2023/09/04 01:05:02;;;;;;;4.77;4.77;;;13.50;99.90;;;;;;4961742;28;20876;-69
2023/09/04 01:07:28;;;;;;;4.67;4.67;;;13.50;99.90;;;;;;4961980;28;20809;-66
2023/09/04 01:09:56;;;;;;;4.20;4.20;;;13.70;99.90;;;;;;4967656;28;20464;-66
2023/09/04 01:12:30;;;;;;;4.20;4.20;;;13.80;99.90;;;;;;4969744;28;20865;-66
2023/09/04 01:15:01;;;;;;;4.20;4.20;;;13.70;99.90;;;;;;4966119;28;20467;-65
2023/09/04 01:17:30;;;;;;;4.13;4.13;;;13.80;99.90;;;;;;4968537;28;20455;-66
2023/09/04 01:19:58;;;;;;;4.13;4.13;;;13.80;99.90;;;;;;4980970;28;20522;-67
2023/09/04 01:22:28;;;;;;;4.13;4.13;;;13.80;99.90;;;;;;4962419;28;20863;-67
2023/09/04 01:24:56;;;;;;;4.77;4.77;;;13.80;99.90;;;;;;4963309;28;20513;-67
2023/09/04 01:27:26;;;;;;;4.50;4.50;;;13.70;99.90;;;;;;4969177;28;20486;-67
2023/09/04 01:30:01;;;;;;;4.30;4.30;;;13.60;99.90;;;;;;4968045;28;20473;-66
2023/09/04 01:32:36;;;;;;;4.50;4.50;;;13.60;99.90;;;;;;4969037;28;20487;-66
2023/09/04 01:35:06;;;;;;;4.20;4.20;;;13.50;99.90;;;;;;4963398;28;20760;-67
2023/09/04 01:37:36;;;;;;;4.60;4.60;;;13.50;99.90;;;;;;4967092;28;20462;-67
2023/09/04 01:40:04;;;;;;;4.70;4.70;;;13.60;99.90;;;;;;4957139;28;20499;-66
2023/09/04 01:42:32;;;;;;;6.10;6.00;;;13.50;99.90;;;;;;4964943;28;20502;-67
2023/09/04 01:44:59;;;;;;;5.20;5.10;;;13.40;99.90;;;;;;4973947;28;20478;-66
2023/09/04 01:47:26;;;;;;;6.37;6.27;;;13.40;99.90;;;;;;4967727;28;20467;-66
2023/09/04 01:49:54;;;;;;;5.60;5.50;;;13.30;99.90;;;;;;4964269;28;21013;-66
2023/09/04 01:52:21;;;;;;;5.37;5.27;;;13.30;99.90;;;;;;4964705;28;20478;-66
2023/09/04 01:54:49;;;;;;;6.27;6.17;;;13.30;99.90;;;;;;4967026;28;20994;-67
2023/09/04 01:57:17;;;;;;;6.57;6.47;;;13.20;99.90;;;;;;4960094;28;20832;-66
2023/09/04 01:59:44;;;;;;;5.80;5.70;;;13.20;99.90;;;;;;4968452;28;20530;-66
2023/09/04 02:02:10;;;;;;;6.00;5.90;;;13.10;99.90;;;;;;4969710;28;20466;-68
2023/09/04 02:04:37;;;;;;;6.13;6.03;;;13.10;99.90;;;;;;4965233;28;20459;-67
2023/09/04 02:07:05;;;;;;;6.40;6.30;;;13.10;99.90;;;;;;4960707;28;20554;-68
2023/09/04 02:09:34;;;;;;;6.33;6.23;;;13.10;99.90;;;;;;4965353;28;20475;-66
2023/09/04 02:12:03;;;;;;;5.93;5.83;;;13.00;99.90;;;;;;4964982;28;20464;-68
2023/09/04 02:14:31;;;;;;;5.00;5.00;;;13.10;99.90;;;;;;4967336;28;20547;-66
2023/09/04 02:16:58;;;;;;;3.97;3.97;;;13.20;99.90;;;;;;4965918;28;20475;-67
2023/09/04 02:19:24;;;;;;;3.60;3.60;;;13.40;99.90;;;;;;4968780;28;21077;-66
2023/09/04 02:21:52;;;;;;;3.63;3.63;;;13.50;99.90;;;;;;4962524;28;20633;-67
2023/09/04 02:24:19;;;;;;;3.87;3.87;;;13.50;99.90;;;;;;4960136;28;20487;-67
2023/09/04 02:26:46;;;;;;;4.10;4.10;;;13.50;99.90;;;;;;4966600;28;20472;-67
2023/09/04 02:29:14;;;;;;;4.00;4.00;;;13.60;99.90;;;;;;4968114;28;20467;-67
2023/09/04 02:31:42;;;;;;;3.93;3.93;;;13.60;99.90;;;;;;4971432;28;20466;-67
2023/09/04 02:34:10;;;;;;;3.90;3.90;;;13.60;99.90;;;;;;4959107;28;20503;-66
2023/09/04 02:36:37;;;;;;;4.20;4.20;;;13.60;99.90;;;;;;4967961;28;20962;-67
2023/09/04 02:39:04;;;;;;;4.27;4.27;;;13.50;99.90;;;;;;4970695;28;20525;-68
2023/09/04 02:41:31;;;;;;;4.30;4.30;;;13.50;99.90;;;;;;4965286;28;20480;-66
2023/09/04 02:43:57;;;;;;;4.60;4.60;;;13.50;99.90;;;;;;4966225;28;20460;-67
2023/09/04 02:46:32;;;;;;;5.30;5.20;;;13.40;99.90;;;;;;4964715;28;20537;-66
2023/09/04 02:48:59;;;;;;;4.50;4.50;;;13.40;99.90;;;;;;4967351;28;20498;-67
2023/09/04 02:51:26;;;;;;;4.50;4.50;;;13.50;99.90;;;;;;4968758;28;20460;-69
2023/09/04 02:53:53;;;;;;;4.40;4.40;;;13.50;99.90;;;;;;4960155;28;20491;-67
2023/09/04 02:56:19;;;;;;;4.37;4.37;;;13.50;99.90;;;;;;4964767;28;20550;-67
2023/09/04 02:58:47;;;;;;;4.20;4.20;;;13.50;99.90;;;;;;4965471;28;20491;-67
2023/09/04 03:01:16;;;;;;;4.30;4.30;;;13.40;99.90;;;;;;4958626;28;20893;-67
2023/09/04 03:03:44;;;;;;;4.27;4.27;;;13.40;99.90;;;;;;4966873;28;21137;-67
2023/09/04 03:06:11;;;;;;;4.30;4.30;;;13.40;99.90;;;;;;4959311;28;20884;-67
2023/09/04 03:08:39;;;;;;;4.30;4.30;;;13.40;99.90;;;;;;4966736;28;20463;-67
2023/09/04 03:11:09;;;;;;;3.93;3.93;;;13.40;99.90;;;;;;4964220;28;20546;-68
2023/09/04 03:13:37;;;;;;;4.00;4.00;;;13.40;99.90;;;;;;4960346;28;20470;-66
2023/09/04 03:16:06;;;;;;;4.30;4.30;;;13.50;99.90;;;;;;4973510;28;20981;-67
2023/09/04 03:18:32;;;;;;;4.13;4.13;;;13.40;99.90;;;;;;4961351;28;20468;-67
2023/09/04 03:21:02;;;;;;;3.43;3.43;;;13.40;99.90;;;;;;4970929;28;20841;-67
2023/09/04 03:23:29;;;;;;;3.20;3.20;;;13.40;99.90;;;;;;4967560;28;20487;-67
2023/09/04 03:25:56;;;;;;;3.23;3.23;;;13.40;99.90;;;;;;4959621;28;20467;-66
2023/09/04 03:28:23;;;;;;;4.17;4.17;;;13.40;99.90;;;;;;4968229;28;20463;-67
2023/09/04 03:30:50;;;;;;;3.80;3.80;;;13.40;99.90;;;;;;4966623;28;20824;-68
2023/09/04 03:33:17;;;;;;;3.50;3.50;;;13.50;99.90;;;;;;4960251;28;20987;-65
2023/09/04 03:35:44;;;;;;;4.00;4.00;;;13.40;99.90;;;;;;4966747;28;20476;-67
2023/09/04 03:38:12;;;;;;;4.23;4.23;;;13.50;99.90;;;;;;4969968;28;20467;-67
2023/09/04 03:40:39;;;;;;;3.30;3.30;;;13.50;99.90;;;;;;4971353;28;20619;-67
2023/09/04 03:43:06;;;;;;;3.40;3.40;;;13.50;99.90;;;;;;4962770;28;20467;-66
2023/09/04 03:45:34;;;;;;;3.80;3.80;;;13.40;99.90;;;;;;4968216;28;20832;-68
2023/09/04 03:48:02;;;;;;;3.40;3.40;;;13.40;99.90;;;;;;4964536;28;20741;-67
2023/09/04 03:50:29;;;;;;;3.87;3.87;;;13.40;99.90;;;;;;4967623;28;20467;-66
2023/09/04 03:52:56;;;;;;;3.87;3.87;;;13.30;99.90;;;;;;4967599;28;20814;-67
2023/09/04 03:55:25;;;;;;;4.23;4.23;;;13.30;99.90;;;;;;4959714;28;20890;-66
2023/09/04 03:57:53;;;;;;;4.70;4.70;;;13.20;99.90;;;;;;4966475;28;20819;-68
2023/09/04 04:00:20;;;;;;;4.20;4.20;;;13.20;99.90;;;;;;4968679;28;20538;-67
2023/09/04 04:02:51;;;;;;;4.30;4.30;;;13.20;99.90;;;;;;4967482;28;20452;-68
2023/09/04 04:05:20;;;;;;;4.40;4.40;;;13.10;99.90;;;;;;4962753;28;20589;-67
2023/09/04 04:07:47;;;;;;;4.70;4.70;;;13.00;99.90;;;;;;4965752;28;20487;-67
2023/09/04 04:10:14;;;;;;;4.90;4.90;;;12.90;99.90;;;;;;4974320;28;21197;-66
2023/09/04 04:12:42;;;;;;;5.33;5.23;;;12.90;99.90;;;;;;4969864;28;20562;-67
2023/09/04 04:15:11;;;;;;;5.37;5.27;;;12.90;99.90;;;;;;4962667;28;20538;-66
2023/09/04 04:17:39;;;;;;;5.53;5.43;;;12.90;99.90;;;;;;4970728;28;20460;-68
2023/09/04 04:20:11;;;;;;;5.43;5.33;;;12.80;99.90;;;;;;4966192;28;21124;-68
2023/09/04 04:22:38;;;;;;;5.57;5.47;;;12.80;99.90;;;;;;4968001;28;20499;-67
2023/09/04 04:25:05;;;;;;;4.83;4.83;;;12.90;99.90;;;;;;4971380;28;20805;-67
2023/09/04 04:27:33;;;;;;;4.90;4.90;;;12.90;99.90;;;;;;4964554;28;20660;-67
2023/09/04 04:30:02;;;;;;;4.70;4.70;;;12.80;99.90;;;;;;4971623;28;20454;-67
2023/09/04 04:32:29;;;;;;;4.60;4.60;;;12.80;99.90;;;;;;4960848;28;21066;-68
2023/09/04 04:34:56;;;;;;;5.60;5.50;;;12.90;99.90;;;;;;4970009;28;20975;-67
2023/09/04 04:37:23;;;;;;;4.70;4.70;;;12.90;99.90;;;;;;4971157;28;20455;-66
2023/09/04 04:39:52;;;;;;;4.30;4.30;;;13.00;99.90;;;;;;4969266;28;20482;-67
2023/09/04 04:42:19;;;;;;;3.70;3.70;;;13.10;99.90;;;;;;4965356;28;20474;-67
2023/09/04 04:44:46;;;;;;;3.77;3.77;;;13.20;99.90;;;;;;4963867;28;20551;-67
2023/09/04 04:47:14;;;;;;;3.53;3.53;;;13.30;99.90;;;;;;4974955;28;20483;-68
2023/09/04 04:49:41;;;;;;;3.90;3.90;;;13.50;99.90;;;;;;4970550;28;21239;-67
2023/09/04 04:52:09;;;;;;;3.27;3.27;;;13.50;99.90;;;;;;4970870;28;20463;-67
2023/09/04 04:54:36;;;;;;;3.23;3.23;;;13.50;99.90;;;;;;4962742;28;20526;-67
2023/09/04 04:57:03;;;;;;;3.30;3.30;;;13.50;99.90;;;;;;4969576;28;20467;-68
2023/09/04 04:59:30;;;;;;;4.00;4.00;;;13.60;99.90;;;;;;4969637;28;20526;-67
2023/09/04 05:01:58;;;;;;;3.57;3.57;;;13.80;99.90;;;;;;4958279;28;20475;-68
2023/09/04 05:04:26;;;;;;;3.60;3.60;;;13.90;99.90;;;;;;4960757;28;20475;-68
2023/09/04 05:06:54;;;;;;;3.50;3.50;;;14.00;99.90;;;;;;4957434;28;20464;-67
2023/09/04 05:09:21;;;;;;;3.40;3.40;;;14.00;99.90;;;;;;4968706;28;20975;-67
2023/09/04 05:11:48;;;;;;;3.70;3.70;;;14.10;99.90;;;;;;4977412;28;21013;-68
2023/09/04 05:14:15;;;;;;;3.80;3.80;;;14.10;99.90;;;;;;4951722;28;20471;-66
2023/09/04 05:16:43;;;;;;;3.40;3.40;;;14.10;99.90;;;;;;4959176;28;20463;-69
2023/09/04 05:19:10;;;;;;;3.33;3.33;;;14.10;99.90;;;;;;4958394;28;20484;-68
2023/09/04 05:21:38;;;;;;;4.07;4.07;;;14.10;99.90;;;;;;4965928;28;20455;-67
2023/09/04 05:24:05;;;;;;;4.10;4.10;;;14.20;99.90;;;;;;4965376;28;20492;-68
2023/09/04 05:26:32;;;;;;;3.93;3.93;;;14.20;99.90;;;;;;4964218;28;20712;-67
2023/09/04 05:29:00;;;;;;;3.90;3.90;;;14.30;99.90;;;;;;4959119;28;20527;-67
2023/09/04 05:31:27;;;;;;;4.00;4.00;;;14.30;99.90;;;;;;4965835;28;20983;-66
2023/09/04 05:33:53;;;;;;;4.20;4.20;;;14.30;99.90;;;;;;4965039;28;20797;-68
2023/09/04 05:36:20;;;;;;;3.60;3.60;;;14.30;99.90;;;;;;4962305;28;20460;-67
2023/09/04 05:38:48;;;;;;;4.43;4.43;;;14.40;99.90;;;;;;4960815;28;20471;-67
2023/09/04 05:41:15;;;;;;;4.67;4.67;;;14.40;99.90;;;;;;4960750;28;20862;-68
2023/09/04 05:43:42;;;;;;;4.97;4.97;;;14.40;99.90;;;;;;4962484;28;20538;-68
2023/09/04 05:46:09;;;;;;;4.30;4.30;;;14.50;99.90;;;;;;4957669;28;20472;-67
2023/09/04 05:48:37;;;;;;;4.70;4.70;;;14.50;99.90;;;;;;4961499;28;20468;-67
2023/09/04 05:51:04;;;;;;;5.27;5.17;;;14.60;99.90;;;;;;4964664;28;20463;-67
2023/09/04 05:53:31;;;;;;;5.33;5.23;;;14.70;99.90;;;;;;4967043;28;20523;-68
2023/09/04 05:56:07;;;;;;;5.30;5.20;;;14.70;99.90;;;;;;4964971;28;20476;-67
2023/09/04 05:58:34;;;;;;;5.23;5.13;;;14.70;99.90;;;;;;4962998;28;20463;-68
2023/09/04 06:01:01;;;;;;;5.03;5.03;;;14.80;99.90;;;;;;4964170;28;20495;-68
2023/09/04 06:03:28;;;;;;;5.53;5.43;;;14.80;99.90;;;;;;4963349;28;20860;-67
2023/09/04 06:05:55;;;;;;;5.43;5.33;;;14.80;99.90;;;;;;4968420;28;20569;-68
2023/09/04 06:08:24;;;;;;;6.13;6.03;;;14.90;99.90;;;;;;4969555;28;20451;-67
2023/09/04 06:10:51;;;;;;;6.10;6.00;;;14.90;99.90;;;;;;4966222;28;20468;-67
2023/09/04 06:13:19;;;;;;;5.70;5.60;;;14.90;99.90;;;;;;4960860;28;20468;-68
2023/09/04 06:15:46;;;;;;;6.03;5.93;;;14.90;99.90;;;;;;4969444;28;20462;-68
2023/09/04 06:18:13;;;;;;;6.30;6.20;;;15.00;99.90;;;;;;4965175;28;20467;-66
2023/09/04 06:20:40;;;;;;;6.00;5.90;;;15.10;99.90;;;;;;4961507;28;20491;-67
2023/09/04 06:23:07;;;;;;;6.63;6.53;;;15.20;99.90;;;;;;4963103;28;20502;-66
2023/09/04 06:25:39;;;;;;;7.97;7.87;;;15.40;99.90;;;;;;4963693;28;20476;-66
2023/09/04 06:28:06;;;;;;;7.60;7.50;;;15.60;99.90;;;;;;4964347;28;21035;-66
2023/09/04 06:30:35;;;;;;;7.67;7.57;;;15.70;99.90;;;;;;4961539;28;20967;-66
2023/09/04 06:33:03;;;;;;;7.40;7.30;;;15.70;99.90;;;;;;4959235;28;20502;-67
2023/09/04 06:35:31;;;;;;;8.43;8.33;;;15.80;99.90;;;;;;4961885;28;20983;-67
2023/09/04 06:37:59;;;;;;;7.87;7.77;;;15.90;99.90;;;;;;4966144;28;20958;-67
2023/09/04 06:40:26;;;;;;;7.93;7.83;;;16.00;99.90;;;;;;4962166;28;20494;-67
2023/09/04 06:42:53;;;;;;;7.83;7.73;;;16.00;99.90;;;;;;4962761;28;20467;-68
2023/09/04 06:45:20;;;;;;;8.53;8.43;;;16.10;99.90;;;;;;4959665;28;22024;-67
2023/09/04 06:47:49;;;;;;;8.20;8.10;;;16.10;99.90;;;;;;4965758;28;20454;-67
2023/09/04 06:50:16;;;;;;;8.63;8.53;;;16.20;99.90;;;;;;4958168;28;20474;-67
2023/09/04 06:52:42;;;;;;;8.67;8.57;;;16.30;99.90;;;;;;4962881;28;20467;-67
2023/09/04 06:55:11;;;;;;;8.60;8.50;;;16.50;99.90;;;;;;4947212;28;20817;-66
2023/09/04 06:57:38;;;;;;;9.30;9.10;;;16.50;99.90;;;;;;4937514;29;20477;-67
2023/09/04 07:00:11;;;;;;;9.20;9.00;;;16.60;99.90;;;;;;4946708;28;20912;-66
2023/09/04 07:02:39;;;;;;;8.60;8.50;;;16.80;99.90;;;;;;4938891;28;20517;-68
2023/09/04 07:05:08;;;;;;;9.23;9.03;;;16.90;99.90;;;;;;4945630;29;20987;-67
2023/09/04 07:07:37;;;;;;;8.67;8.57;;;17.00;99.90;;;;;;4947395;28;20468;-68
2023/09/04 07:10:04;;;;;;;9.17;8.97;;;17.10;99.90;;;;;;4946543;28;20474;-68
2023/09/04 07:12:32;;;;;;;9.07;8.87;;;17.20;99.90;;;;;;4943944;28;20551;-67
2023/09/04 07:15:00;;;;;;;8.37;8.27;;;17.30;99.90;;;;;;4936107;29;20468;-68
2023/09/04 07:17:27;;;;;;;8.73;8.63;;;17.40;99.90;;;;;;4937902;29;20545;-67
2023/09/04 07:19:54;;;;;;;9.60;9.40;;;17.40;99.90;;;;;;4950588;28;20461;-68
2023/09/04 07:22:22;;;;;;;9.40;9.20;;;17.60;99.90;;;;;;4944590;28;20468;-67
2023/09/04 07:24:49;;;;;;;10.20;10.00;;;17.80;99.90;;;;;;4943700;28;20498;-67
2023/09/04 07:27:16;;;;;;;11.20;10.90;;;17.90;99.90;;;;;;4947621;29;20496;-69
2023/09/04 07:29:42;;;;;;;10.67;10.47;;;18.10;99.90;;;;;;4941126;28;20460;-68
2023/09/04 07:32:09;;;;;;;10.57;10.37;;;18.20;99.90;;;;;;4944697;29;20476;-68
2023/09/04 07:34:37;;;;;;;10.33;10.13;;;18.30;99.90;;;;;;4940479;28;20472;-68
2023/09/04 07:37:04;;;;;;;10.60;10.40;;;18.30;99.90;;;;;;4943458;28;20842;-69
2023/09/04 07:39:32;;;;;;;11.60;11.30;;;18.40;99.90;;;;;;4946363;29;20476;-68
2023/09/04 07:42:00;;;;;;;11.40;11.10;;;18.60;99.90;;;;;;4941442;29;20495;-69
2023/09/04 07:44:27;;;;;;;11.50;11.20;;;18.70;99.90;;;;;;4941920;29;21943;-68
2023/09/04 07:46:54;;;;;;;11.30;11.00;;;18.70;99.90;;;;;;4934887;29;20473;-68
2023/09/04 07:49:21;;;;;;;11.63;11.33;;;18.90;99.90;;;;;;4945559;29;20660;-69
2023/09/04 07:51:48;;;;;;;11.50;11.20;;;19.10;99.90;;;;;;4941090;29;20461;-69
2023/09/04 07:54:15;;;;;;;11.80;11.50;;;19.30;99.90;;;;;;4959306;28;20490;-69
2023/09/04 07:56:43;;;;;;;11.57;11.27;;;19.50;99.90;;;;;;4963987;28;20654;-68
2023/09/04 07:59:10;;;;;;;12.07;11.77;;;19.60;99.90;;;;;;4960637;28;20595;-70
2023/09/04 08:01:38;;;;;;;11.80;11.50;;;19.70;99.90;;;;;;4959929;28;20498;-69
2023/09/04 08:04:07;;;;;;;12.03;11.73;;;19.70;99.90;;;;;;4958928;28;20471;-68
2023/09/04 08:06:35;;;;;;;11.80;11.50;;;19.90;99.90;;;;;;4965057;28;20569;-68
2023/09/04 08:09:03;;;;;;;12.00;11.70;;;20.10;99.90;;;;;;4959879;28;20483;-68
2023/09/04 08:11:29;;;;;;;12.40;12.10;;;20.20;99.90;;;;;;4963270;28;20463;-67
2023/09/04 08:13:58;;;;;;;12.20;11.90;;;20.30;99.90;;;;;;4958377;28;20837;-69
2023/09/04 08:16:25;;;;;;;12.00;11.70;;;20.30;99.90;;;;;;4961609;28;20471;-68
2023/09/04 08:18:52;;;;;;;12.30;12.00;;;20.50;99.90;;;;;;4960675;28;20468;-68
2023/09/04 08:21:19;;;;;;;12.57;12.27;;;20.70;99.90;;;;;;4966524;28;20493;-70
2023/09/04 08:23:45;;;;;;;12.73;12.40;;;20.80;99.90;;;;;;4966206;28;20514;-70
2023/09/04 08:26:14;;;;;;;12.57;12.27;;;20.80;99.90;;;;;;4965476;28;20486;-69
2023/09/04 08:28:42;;;;;;;13.00;12.60;;;21.00;99.90;;;;;;4957985;28;20834;-69
2023/09/04 08:31:11;;;;;;;13.07;12.67;;;21.10;99.90;;;;;;4964075;28;20463;-69
2023/09/04 08:33:39;;;;;;;12.90;12.50;;;21.30;99.90;;;;;;4959219;28;20471;-69
2023/09/04 08:36:06;;;;;;;12.70;12.40;;;21.30;99.90;;;;;;4961026;28;20522;-68
2023/09/04 08:38:33;;;;;;;12.80;12.50;;;21.40;99.90;;;;;;4966280;28;20463;-69
2023/09/04 08:41:05;;;;;;;13.20;12.80;;;21.50;99.90;;;;;;4964950;28;21018;-69
2023/09/04 08:43:33;;;;;;;12.70;12.40;;;21.50;99.90;;;;;;4966750;28;20463;-67
2023/09/04 08:46:02;;;;;;;12.67;12.37;;;21.60;99.90;;;;;;4973171;28;20451;-70
2023/09/04 08:48:32;;;;;;;12.93;12.57;;;21.70;99.90;;;;;;4950890;28;20618;-68
2023/09/04 08:50:59;;;;;;;12.80;12.50;;;21.70;99.90;;;;;;4962475;28;20486;-68
2023/09/04 08:53:27;;;;;;;13.43;13.03;;;21.90;99.90;;;;;;4957513;28;21113;-70
2023/09/04 08:55:54;;;;;;;12.60;12.30;;;22.10;99.90;;;;;;4940947;29;20507;-68
2023/09/04 08:58:22;;;;;;;13.10;12.70;;;22.30;99.90;;;;;;4951405;28;20443;-68
2023/09/04 09:00:49;;;;;;;13.07;12.67;;;22.40;99.90;;;;;;4949371;28;20504;-70
2023/09/04 09:03:17;;;;;;;13.43;13.03;;;22.50;99.90;;;;;;4949716;29;20617;-68
2023/09/04 09:05:48;;;;;;;13.20;12.80;;;22.50;99.90;;;;;;4947356;29;20668;-67
2023/09/04 09:08:16;;;;;;;12.87;12.57;;;22.70;99.90;;;;;;4949198;29;20848;-69
2023/09/04 09:10:46;;;;;;;13.87;13.47;;;22.90;99.90;;;;;;4941005;29;20567;-68
2023/09/04 09:13:14;;;;;;;14.00;13.60;;;23.20;99.90;;;;;;4949226;29;20448;-67
2023/09/04 09:15:43;;;;;;;13.60;13.20;;;24.20;99.90;;;;;;4947923;28;20871;-68
2023/09/04 09:18:10;;;;;;;13.70;13.30;;;24.90;99.90;;;;;;4946030;28;21067;-68
2023/09/04 09:20:39;;;;;;;13.60;13.20;;;25.40;99.90;;;;;;4950065;29;20468;-67
2023/09/04 09:23:07;;;;;;;13.83;13.43;;;25.90;99.90;;;;;;4947005;29;20897;-68
2023/09/04 09:25:36;;;;;;;13.60;13.20;;;26.20;99.90;;;;;;4945785;28;20819;-70
2023/09/04 09:28:05;;;;;;;14.20;13.80;;;26.80;99.90;;;;;;4943086;29;20535;-68
2023/09/04 09:30:38;;;;;;;13.50;13.10;;;26.90;99.90;;;;;;4949498;28;20459;-67
2023/09/04 09:33:09;;;;;;;14.47;14.07;;;27.10;99.90;;;;;;4945692;29;20472;-67
2023/09/04 09:35:36;;;;;;;14.17;13.77;;;27.30;99.90;;;;;;4947133;29;20934;-67
2023/09/04 09:38:03;;;;;;;14.43;14.03;;;27.20;99.90;;;;;;4946056;28;20468;-67
2023/09/04 09:40:32;;;;;;;14.53;14.13;;;27.40;99.90;;;;;;4947402;28;20472;-68
2023/09/04 09:42:59;;;;;;;14.67;14.27;;;27.90;99.90;;;;;;4937353;29;20476;-67
2023/09/04 09:45:32;;;;;;;15.17;14.67;;;28.00;99.90;;;;;;4950161;28;20467;-67
2023/09/04 09:47:59;;;;;;;14.47;14.07;;;28.50;99.90;;;;;;4944343;29;20568;-67
2023/09/04 09:50:26;;;;;;;15.17;14.67;;;28.90;99.90;;;;;;4949626;29;20464;-69
2023/09/04 09:52:59;;;;;;;14.47;14.07;;;28.90;99.90;;;;;;4951231;28;20991;-67
2023/09/04 09:55:27;;;;;;;14.70;14.30;;;28.90;99.90;;;;;;4947380;28;20479;-68
2023/09/04 09:57:57;;;;;;;14.20;13.80;;;28.80;99.90;;;;;;4942000;28;20464;-69
2023/09/04 10:00:26;;;;;;;15.23;14.73;;;28.60;99.90;;;;;;4935754;28;20527;-67
2023/09/04 10:02:53;;;;;;;14.00;13.60;;;28.80;99.90;;;;;;4949183;28;20491;-67
2023/09/04 10:05:22;;;;;;;14.10;13.70;;;29.00;99.90;;;;;;4959485;28;20960;-68
2023/09/04 10:07:55;;;;;;;13.93;13.53;;;29.10;99.90;;;;;;4958173;28;20468;-69
2023/09/04 10:10:22;;;;;;;14.17;13.77;;;28.60;99.90;;;;;;4957533;28;20463;-67
2023/09/04 10:12:51;;;;;;;13.43;13.03;;;29.00;99.90;;;;;;4948671;28;20809;-66
2023/09/04 10:15:24;;;;;;;14.27;13.87;;;29.50;99.90;;;;;;4952021;28;20467;-67
2023/09/04 10:18:08;;;;;;;14.03;13.63;;;29.60;99.90;;;;;;4950177;28;20853;-67
2023/09/04 10:20:37;;;;;;;13.83;13.43;;;28.80;99.90;;;;;;4951194;28;20472;-67
2023/09/04 10:23:08;;;;;;;13.43;13.03;;;28.80;99.90;;;;;;4949830;28;20498;-66
2023/09/04 10:25:45;;;;;;;14.10;13.70;;;28.90;99.90;;;;;;4951816;28;20456;-67
2023/09/04 10:28:18;;;;;;;13.87;13.47;;;28.70;99.90;;;;;;4954431;28;20486;-67
2023/09/04 10:30:50;;;;;;;14.10;13.70;;;28.70;99.90;;;;;;4953921;28;20961;-67
2023/09/04 10:33:18;;;;;;;13.83;13.43;;;28.40;99.90;;;;;;4943148;28;20463;-67
2023/09/04 10:35:45;;;;;;;13.80;13.40;;;28.50;99.90;;;;;;4948270;28;21072;-67
2023/09/04 10:38:13;;;;;;;13.50;13.10;;;28.70;99.90;;;;;;4948216;28;20480;-68
2023/09/04 10:40:41;;;;;;;13.77;13.37;;;29.30;99.90;;;;;;4956424;28;20479;-67
2023/09/04 10:43:10;;;;;;;13.67;13.27;;;29.70;99.90;;;;;;4950195;28;20502;-67
2023/09/04 10:45:37;;;;;;;14.53;14.13;;;30.00;99.90;;;;;;4943341;28;20472;-66
2023/09/04 10:48:06;;;;;;;13.93;13.53;;;29.90;99.90;;;;;;4948572;28;20464;-66
2023/09/04 10:50:36;;;;;;;14.20;13.80;;;30.20;99.90;;;;;;4949429;28;20460;-66
2023/09/04 10:53:04;;;;;;;14.23;13.83;;;29.80;99.90;;;;;;4955157;28;20484;-68
2023/09/04 10:55:32;;;;;;;14.27;13.87;;;30.30;99.90;;;;;;4940113;29;20814;-66
2023/09/04 10:58:00;;;;;;;14.30;13.90;;;30.30;99.90;;;;;;4948124;28;20459;-66
2023/09/04 11:00:29;;;;;;;15.10;14.60;;;30.40;99.90;;;;;;4951883;28;20499;-66
2023/09/04 11:02:58;;;;;;;14.87;14.40;;;30.50;99.90;;;;;;4947763;28;20504;-66
2023/09/04 11:05:28;;;;;;;14.63;14.23;;;30.80;99.90;;;;;;4938936;28;20911;-66
2023/09/04 11:07:55;;;;;;;14.53;14.13;;;30.70;99.90;;;;;;4941311;29;21059;-67
2023/09/04 11:10:36;;;;;;;14.30;13.90;;;31.00;99.90;;;;;;4948126;28;20457;-67
2023/09/04 11:13:04;;;;;;;14.70;14.30;;;31.00;99.90;;;;;;4945058;28;20471;-65
2023/09/04 11:15:34;;;;;;;14.40;14.00;;;31.60;99.90;;;;;;4948849;28;20463;-66
2023/09/04 11:18:02;;;;;;;14.47;14.07;;;31.50;99.90;;;;;;4948191;28;20460;-66
2023/09/04 11:20:46;;;;;;;14.73;14.33;;;31.70;99.90;;;;;;4937941;28;20456;-67
2023/09/04 11:23:13;;;;;;;14.53;14.13;;;31.70;99.90;;;;;;4925643;29;20559;-67
2023/09/04 11:25:43;;;;;;;14.60;14.20;;;31.40;99.90;;;;;;4936017;29;20471;-66
2023/09/04 11:28:10;;;;;;;14.97;14.50;;;31.60;99.90;;;;;;4936971;29;20471;-66
2023/09/04 11:30:38;;;;;;;14.70;14.30;;;32.20;99.70;;;;;;4935321;29;20465;-66
2023/09/04 11:33:05;;;;;;;14.70;14.30;;;32.40;99.80;;;;;;4940345;28;20469;-66
2023/09/04 11:35:34;;;;;;;14.53;14.13;;;32.60;98.40;;;;;;4936360;29;20468;-67
2023/09/04 11:38:01;;;;;;;14.37;13.97;;;32.50;98.30;;;;;;4928143;29;20469;-67
2023/09/04 11:40:33;;;;;;;14.40;14.00;;;32.80;98.00;;;;;;4934814;29;20464;-67
2023/09/04 11:43:00;;;;;;;14.47;14.07;;;32.80;98.40;;;;;;4942959;29;20484;-65
2023/09/04 11:45:27;;;;;;;14.83;14.43;;;33.50;98.30;;;;;;4937231;28;20471;-66
2023/09/04 11:47:54;;;;;;;14.47;14.07;;;33.80;97.40;;;;;;4935635;28;20466;-67
2023/09/04 11:50:21;;;;;;;14.63;14.23;;;33.30;97.00;;;;;;4931450;29;20472;-66
2023/09/04 11:52:52;;;;;;;14.50;14.10;;;33.40;97.70;;;;;;4936271;28;20775;-66
2023/09/04 11:55:21;;;;;;;13.90;13.50;;;34.00;95.70;;;;;;4953268;28;20857;-67
2023/09/04 11:57:47;;;;;;;13.90;13.50;;;34.20;94.40;;;;;;4953061;28;20468;-66
2023/09/04 12:00:15;;;;;;;13.93;13.53;;;33.50;93.90;;;;;;4954199;28;20464;-68
2023/09/04 12:02:43;;;;;;;14.30;13.90;;;33.70;92.90;;;;;;4950834;28;20496;-67
2023/09/04 12:05:10;;;;;;;14.17;13.77;;;33.90;93.20;;;;;;4951337;28;20550;-65
2023/09/04 12:07:37;;;;;;;14.60;14.20;;;34.30;93.10;;;;;;4954183;28;20467;-66
2023/09/04 12:10:07;;;;;;;14.30;13.90;;;34.60;92.50;;;;;;4953883;28;20467;-66
2023/09/04 12:12:34;;;;;;;14.10;13.70;;;34.40;92.30;;;;;;4953647;28;20479;-67
2023/09/04 12:15:02;;;;;;;14.77;14.37;;;34.60;92.80;;;;;;4952693;28;20655;-67
2023/09/04 12:17:29;;;;;;;14.30;13.90;;;34.20;91.50;;;;;;4952693;28;20510;-67
2023/09/04 12:19:56;;;;;;;14.10;13.70;;;34.40;91.40;;;;;;4950719;28;21108;-68
2023/09/04 12:22:22;;;;;;;14.33;13.93;;;34.30;90.20;;;;;;4950401;28;20491;-68
2023/09/04 12:25:04;;;;;;;13.90;13.50;;;34.40;90.20;;;;;;4955242;28;20531;-67
2023/09/04 12:27:33;;;;;;;14.37;13.97;;;33.50;91.00;;;;;;4957766;28;20562;-67
2023/09/04 12:30:00;;;;;;;14.30;13.90;;;33.70;90.70;;;;;;4956359;28;20468;-67
2023/09/04 12:32:27;;;;;;;14.30;13.90;;;34.10;90.30;;;;;;4954518;28;20554;-68
2023/09/04 12:35:01;;;;;;;14.83;14.43;;;34.20;89.20;;;;;;4957468;28;20456;-67
2023/09/04 12:37:32;;;;;;;14.07;13.67;;;34.10;88.20;;;;;;4954236;28;20523;-67
2023/09/04 12:39:59;;;;;;;14.03;13.63;;;34.20;89.10;;;;;;4959103;28;20554;-67
2023/09/04 12:42:25;;;;;;;15.00;14.60;;;34.50;89.40;;;;;;4959218;28;20983;-67